sensor_id;sensor_type;location;lat;lon;timestamp;pressure;altitude;pressure_sealevel;temperature
62180;BMP280;48172;53.374;10.722;2022-08-19T00:01:56;101270.50;;;29.66
62180;BMP280;48172;53.374;10.722;2022-08-19T00:04:28;101264.25;;;29.65
62180;BMP280;48172;53.374;10.722;2022-08-19T00:06:56;101257.28;;;29.64
62180;BMP280;48172;53.374;10.722;2022-08-19T00:09:24;101251.75;;;29.64
62180;BMP280;48172;53.374;10.722;2022-08-19T00:11:52;101246.25;;;29.64
62180;BMP280;48172;53.374;10.722;2022-08-19T00:14:19;101243.97;;;29.62
62180;BMP280;48172;53.374;10.722;2022-08-19T00:16:47;101236.47;;;29.63
62180;BMP280;48172;53.374;10.722;2022-08-19T00:19:15;101235.72;;;29.62
62180;BMP280;48172;53.374;10.722;2022-08-19T00:21:42;101232.22;;;29.62
62180;BMP280;48172;53.374;10.722;2022-08-19T00:24:11;101243.75;;;29.60
62180;BMP280;48172;53.374;10.722;2022-08-19T00:26:38;101241.75;;;29.61
62180;BMP280;48172;53.374;10.722;2022-08-19T00:29:06;101236.75;;;29.59
62180;BMP280;48172;53.374;10.722;2022-08-19T00:31:33;101242.25;;;29.59
62180;BMP280;48172;53.374;10.722;2022-08-19T00:34:00;101225.75;;;29.59
62180;BMP280;48172;53.374;10.722;2022-08-19T00:36:26;101230.00;;;29.60
62180;BMP280;48172;53.374;10.722;2022-08-19T00:38:55;101227.75;;;29.59
62180;BMP280;48172;53.374;10.722;2022-08-19T00:41:24;101230.00;;;29.60
62180;BMP280;48172;53.374;10.722;2022-08-19T00:44:18;101239.03;;;29.55
62180;BMP280;48172;53.374;10.722;2022-08-19T00:46:54;101238.00;;;29.58
62180;BMP280;48172;53.374;10.722;2022-08-19T00:52:26;101242.75;;;29.58
62180;BMP280;48172;53.374;10.722;2022-08-19T00:54:56;101253.78;;;29.58
62180;BMP280;48172;53.374;10.722;2022-08-19T00:57:36;101261.28;;;29.57
62180;BMP280;48172;53.374;10.722;2022-08-19T01:00:09;101259.56;;;29.54
62180;BMP280;48172;53.374;10.722;2022-08-19T01:02:38;101258.31;;;29.55
62180;BMP280;48172;53.374;10.722;2022-08-19T01:05:08;101256.06;;;29.54
62180;BMP280;48172;53.374;10.722;2022-08-19T01:07:37;101255.56;;;29.55
62180;BMP280;48172;53.374;10.722;2022-08-19T01:10:08;101252.06;;;29.55
62180;BMP280;48172;53.374;10.722;2022-08-19T01:12:35;101254.56;;;29.53
62180;BMP280;48172;53.374;10.722;2022-08-19T01:15:03;101254.06;;;29.54
62180;BMP280;48172;53.374;10.722;2022-08-19T01:17:29;101251.06;;;29.52
62180;BMP280;48172;53.374;10.722;2022-08-19T01:19:56;101249.56;;;29.51
62180;BMP280;48172;53.374;10.722;2022-08-19T01:24:58;101242.81;;;29.52
62180;BMP280;48172;53.374;10.722;2022-08-19T01:27:25;101242.06;;;29.52
62180;BMP280;48172;53.374;10.722;2022-08-19T01:29:54;101243.31;;;29.51
62180;BMP280;48172;53.374;10.722;2022-08-19T01:32:22;101243.31;;;29.51
62180;BMP280;48172;53.374;10.722;2022-08-19T01:34:59;101236.53;;;29.52
62180;BMP280;48172;53.374;10.722;2022-08-19T01:37:29;101244.06;;;29.51
62180;BMP280;48172;53.374;10.722;2022-08-19T01:39:56;101246.06;;;29.51
62180;BMP280;48172;53.374;10.722;2022-08-19T01:42:23;101243.06;;;29.49
62180;BMP280;48172;53.374;10.722;2022-08-19T01:44:56;101241.56;;;29.48
62180;BMP280;48172;53.374;10.722;2022-08-19T01:47:22;101246.31;;;29.47
62180;BMP280;48172;53.374;10.722;2022-08-19T01:49:49;101242.31;;;29.48
62180;BMP280;48172;53.374;10.722;2022-08-19T01:52:15;101240.31;;;29.49
62180;BMP280;48172;53.374;10.722;2022-08-19T01:54:42;101229.78;;;29.47
62180;BMP280;48172;53.374;10.722;2022-08-19T01:57:12;101231.81;;;29.47
62180;BMP280;48172;53.374;10.722;2022-08-19T01:59:40;101232.34;;;29.45
62180;BMP280;48172;53.374;10.722;2022-08-19T02:02:07;101231.81;;;29.47
62180;BMP280;48172;53.374;10.722;2022-08-19T02:04:35;101235.31;;;29.47
62180;BMP280;48172;53.374;10.722;2022-08-19T02:07:04;101231.06;;;29.46
62180;BMP280;48172;53.374;10.722;2022-08-19T02:09:31;101223.56;;;29.47
62180;BMP280;48172;53.374;10.722;2022-08-19T02:11:58;101224.56;;;29.44
62180;BMP280;48172;53.374;10.722;2022-08-19T02:14:25;101219.06;;;29.44
62180;BMP280;48172;53.374;10.722;2022-08-19T02:16:51;101217.81;;;29.45
62180;BMP280;48172;53.374;10.722;2022-08-19T02:19:18;101212.81;;;29.43
62180;BMP280;48172;53.374;10.722;2022-08-19T02:21:44;101217.56;;;29.43
62180;BMP280;48172;53.374;10.722;2022-08-19T02:24:11;101207.31;;;29.43
62180;BMP280;48172;53.374;10.722;2022-08-19T02:26:38;101217.56;;;29.43
62180;BMP280;48172;53.374;10.722;2022-08-19T02:29:05;101219.06;;;29.44
62180;BMP280;48172;53.374;10.722;2022-08-19T02:31:31;101228.03;;;29.44
62180;BMP280;48172;53.374;10.722;2022-08-19T02:33:58;101231.13;;;29.41
62180;BMP280;48172;53.374;10.722;2022-08-19T02:36:25;101231.84;;;29.41
62180;BMP280;48172;53.374;10.722;2022-08-19T02:38:52;101228.34;;;29.41
62180;BMP280;48172;53.374;10.722;2022-08-19T02:41:26;101220.09;;;29.41
62180;BMP280;48172;53.374;10.722;2022-08-19T02:43:58;101212.31;;;29.39
62180;BMP280;48172;53.374;10.722;2022-08-19T02:46:46;101212.31;;;29.39
62180;BMP280;48172;53.374;10.722;2022-08-19T02:49:13;101217.81;;;29.39
62180;BMP280;48172;53.374;10.722;2022-08-19T02:51:44;101221.84;;;29.38
62180;BMP280;48172;53.374;10.722;2022-08-19T02:54:13;101227.34;;;29.38
62180;BMP280;48172;53.374;10.722;2022-08-19T02:56:42;101231.38;;;29.37
62180;BMP280;48172;53.374;10.722;2022-08-19T02:59:09;101237.63;;;29.38
62180;BMP280;48172;53.374;10.722;2022-08-19T03:01:38;101237.63;;;29.38
62180;BMP280;48172;53.374;10.722;2022-08-19T03:04:11;101226.59;;;29.38
62180;BMP280;48172;53.374;10.722;2022-08-19T03:06:43;101225.84;;;29.37
62180;BMP280;48172;53.374;10.722;2022-08-19T03:09:10;101228.09;;;29.39
62180;BMP280;48172;53.374;10.722;2022-08-19T03:11:37;101225.09;;;29.37
62180;BMP280;48172;53.374;10.722;2022-08-19T03:14:06;101217.38;;;29.35
62180;BMP280;48172;53.374;10.722;2022-08-19T03:16:42;101227.88;;;29.37
62180;BMP280;48172;53.374;10.722;2022-08-19T03:19:08;101238.63;;;29.35
62180;BMP280;48172;53.374;10.722;2022-08-19T03:21:35;101246.88;;;29.35
62180;BMP280;48172;53.374;10.722;2022-08-19T03:24:05;101241.38;;;29.35
62180;BMP280;48172;53.374;10.722;2022-08-19T03:26:33;101243.88;;;29.33
62180;BMP280;48172;53.374;10.722;2022-08-19T03:29:04;101250.88;;;29.34
62180;BMP280;48172;53.374;10.722;2022-08-19T03:31:31;101246.13;;;29.34
62180;BMP280;48172;53.374;10.722;2022-08-19T03:34:20;101249.63;;;29.35
62180;BMP280;48172;53.374;10.722;2022-08-19T03:36:48;101250.88;;;29.34
62180;BMP280;48172;53.374;10.722;2022-08-19T03:39:15;101257.66;;;29.33
62180;BMP280;48172;53.374;10.722;2022-08-19T03:41:43;101265.19;;;29.32
62180;BMP280;48172;53.374;10.722;2022-08-19T03:44:15;101264.44;;;29.32
62180;BMP280;48172;53.374;10.722;2022-08-19T03:46:44;101269.41;;;29.33
62180;BMP280;48172;53.374;10.722;2022-08-19T03:49:11;101268.66;;;29.33
62180;BMP280;48172;53.374;10.722;2022-08-19T03:51:41;101275.44;;;29.32
62180;BMP280;48172;53.374;10.722;2022-08-19T03:54:11;101274.69;;;29.31
62180;BMP280;48172;53.374;10.722;2022-08-19T03:56:39;101269.66;;;29.30
62180;BMP280;48172;53.374;10.722;2022-08-19T03:59:09;101273.16;;;29.30
62180;BMP280;48172;53.374;10.722;2022-08-19T04:01:36;101267.94;;;29.32
62180;BMP280;48172;53.374;10.722;2022-08-19T04:04:03;101262.69;;;29.29
62180;BMP280;48172;53.374;10.722;2022-08-19T04:06:35;101275.91;;;29.30
62180;BMP280;48172;53.374;10.722;2022-08-19T04:09:07;101267.44;;;29.28
62180;BMP280;48172;53.374;10.722;2022-08-19T04:11:39;101262.94;;;29.31
62180;BMP280;48172;53.374;10.722;2022-08-19T04:14:16;101261.41;;;29.30
62180;BMP280;48172;53.374;10.722;2022-08-19T04:16:45;101266.19;;;29.29
62180;BMP280;48172;53.374;10.722;2022-08-19T04:19:14;101282.69;;;29.29
62180;BMP280;48172;53.374;10.722;2022-08-19T04:21:46;101291.44;;;29.28
62180;BMP280;48172;53.374;10.722;2022-08-19T04:24:14;101287.44;;;29.29
62180;BMP280;48172;53.374;10.722;2022-08-19T04:26:41;101278.44;;;29.28
62180;BMP280;48172;53.374;10.722;2022-08-19T04:29:11;101270.69;;;29.27
62180;BMP280;48172;53.374;10.722;2022-08-19T04:31:39;101269.19;;;29.25
62180;BMP280;48172;53.374;10.722;2022-08-19T04:34:08;101281.69;;;29.27
62180;BMP280;48172;53.374;10.722;2022-08-19T04:36:37;101276.19;;;29.27
62180;BMP280;48172;53.374;10.722;2022-08-19T04:39:08;101283.72;;;29.26
62180;BMP280;48172;53.374;10.722;2022-08-19T04:41:35;101286.47;;;29.26
62180;BMP280;48172;53.374;10.722;2022-08-19T04:44:21;101285.69;;;29.25
62180;BMP280;48172;53.374;10.722;2022-08-19T04:46:49;101295.94;;;29.25
62180;BMP280;48172;53.374;10.722;2022-08-19T04:49:19;101291.97;;;29.26
62180;BMP280;48172;53.374;10.722;2022-08-19T04:51:48;101291.69;;;29.24
62180;BMP280;48172;53.374;10.722;2022-08-19T04:54:17;101289.47;;;29.22
62180;BMP280;48172;53.374;10.722;2022-08-19T04:57:04;101297.19;;;29.24
62180;BMP280;48172;53.374;10.722;2022-08-19T04:59:33;101286.47;;;29.26
62180;BMP280;48172;53.374;10.722;2022-08-19T05:02:00;101290.44;;;29.25
62180;BMP280;48172;53.374;10.722;2022-08-19T05:04:27;101287.19;;;29.27
62180;BMP280;48172;53.374;10.722;2022-08-19T05:06:58;101286.94;;;29.24
62180;BMP280;48172;53.374;10.722;2022-08-19T05:09:27;101292.97;;;29.23
62180;BMP280;48172;53.374;10.722;2022-08-19T05:12:14;101287.47;;;29.23
62180;BMP280;48172;53.374;10.722;2022-08-19T05:14:40;101285.97;;;29.22
62180;BMP280;48172;53.374;10.722;2022-08-19T05:17:07;101278.94;;;29.21
62180;BMP280;48172;53.374;10.722;2022-08-19T05:19:52;101285.97;;;29.22
62180;BMP280;48172;53.374;10.722;2022-08-19T05:22:38;101294.22;;;29.22
62180;BMP280;48172;53.374;10.722;2022-08-19T05:25:08;101302.47;;;29.22
62180;BMP280;48172;53.374;10.722;2022-08-19T05:27:39;101296.47;;;29.23
62180;BMP280;48172;53.374;10.722;2022-08-19T05:30:07;101290.22;;;29.23
62180;BMP280;48172;53.374;10.722;2022-08-19T05:32:34;101296.97;;;29.22
62180;BMP280;48172;53.374;10.722;2022-08-19T05:35:00;101299.22;;;29.23
62180;BMP280;48172;53.374;10.722;2022-08-19T05:37:27;101300.47;;;29.22
62180;BMP280;48172;53.374;10.722;2022-08-19T05:39:54;101288.94;;;29.24
62180;BMP280;48172;53.374;10.722;2022-08-19T05:42:21;101286.19;;;29.24
62180;BMP280;48172;53.374;10.722;2022-08-19T05:44:50;101288.44;;;29.25
62180;BMP280;48172;53.374;10.722;2022-08-19T05:47:17;101284.19;;;29.24
62180;BMP280;48172;53.374;10.722;2022-08-19T05:49:46;101284.19;;;29.24
62180;BMP280;48172;53.374;10.722;2022-08-19T05:52:14;101280.19;;;29.25
62180;BMP280;48172;53.374;10.722;2022-08-19T05:54:52;101280.19;;;29.25
62180;BMP280;48172;53.374;10.722;2022-08-19T05:57:22;101279.69;;;29.27
62180;BMP280;48172;53.374;10.722;2022-08-19T05:59:49;101273.44;;;29.27
62180;BMP280;48172;53.374;10.722;2022-08-19T06:02:27;101276.69;;;29.25
62180;BMP280;48172;53.374;10.722;2022-08-19T06:04:53;101280.19;;;29.25
62180;BMP280;48172;53.374;10.722;2022-08-19T06:07:20;101273.94;;;29.25
62180;BMP280;48172;53.374;10.722;2022-08-19T06:09:47;101280.19;;;29.25
62180;BMP280;48172;53.374;10.722;2022-08-19T06:12:26;101275.19;;;29.24
62180;BMP280;48172;53.374;10.722;2022-08-19T06:14:57;101285.69;;;29.25
62180;BMP280;48172;53.374;10.722;2022-08-19T06:17:26;101283.72;;;29.26
62180;BMP280;48172;53.374;10.722;2022-08-19T06:19:53;101282.19;;;29.25
62180;BMP280;48172;53.374;10.722;2022-08-19T06:22:19;101282.94;;;29.25
62180;BMP280;48172;53.374;10.722;2022-08-19T06:24:46;101281.19;;;29.28
62180;BMP280;48172;53.374;10.722;2022-08-19T06:27:12;101278.66;;;29.30
62180;BMP280;48172;53.374;10.722;2022-08-19T06:29:39;101283.69;;;29.32
62180;BMP280;48172;53.374;10.722;2022-08-19T06:32:05;101285.94;;;29.28
62180;BMP280;48172;53.374;10.722;2022-08-19T06:34:34;101277.47;;;29.20
62180;BMP280;48172;53.374;10.722;2022-08-19T06:37:01;101275.97;;;29.19
62180;BMP280;48172;53.374;10.722;2022-08-19T06:39:32;101271.47;;;29.16
62180;BMP280;48172;53.374;10.722;2022-08-19T06:42:00;101264.97;;;29.13
62180;BMP280;48172;53.374;10.722;2022-08-19T06:44:30;101263.72;;;29.09
62180;BMP280;48172;53.374;10.722;2022-08-19T06:47:07;101272.50;;;29.07
62180;BMP280;48172;53.374;10.722;2022-08-19T06:49:48;101256.50;;;29.06
62180;BMP280;48172;53.374;10.722;2022-08-19T06:52:14;101268.00;;;29.04
62180;BMP280;48172;53.374;10.722;2022-08-19T06:54:42;101266.50;;;29.03
62180;BMP280;48172;53.374;10.722;2022-08-19T06:57:22;101264.25;;;29.02
62180;BMP280;48172;53.374;10.722;2022-08-19T06:59:49;101275.25;;;29.02
62180;BMP280;48172;53.374;10.722;2022-08-19T07:02:15;101272.00;;;28.98
62180;BMP280;48172;53.374;10.722;2022-08-19T07:04:47;101265.03;;;28.97
62180;BMP280;48172;53.374;10.722;2022-08-19T07:07:18;101271.25;;;28.97
62180;BMP280;48172;53.374;10.722;2022-08-19T07:09:48;101275.53;;;28.93
62180;BMP280;48172;53.374;10.722;2022-08-19T07:12:26;101281.81;;;28.93
62180;BMP280;48172;53.374;10.722;2022-08-19T07:14:54;101272.78;;;28.93
62180;BMP280;48172;53.374;10.722;2022-08-19T07:17:21;101281.81;;;28.93
62180;BMP280;48172;53.374;10.722;2022-08-19T07:19:47;101289.28;;;28.93
62180;BMP280;48172;53.374;10.722;2022-08-19T07:22:15;101296.78;;;28.92
62180;BMP280;48172;53.374;10.722;2022-08-19T07:24:43;101309.78;;;28.92
62180;BMP280;48172;53.374;10.722;2022-08-19T07:27:17;101309.78;;;28.92
62180;BMP280;48172;53.374;10.722;2022-08-19T07:29:51;101312.53;;;28.92
62180;BMP280;48172;53.374;10.722;2022-08-19T07:32:23;101322.06;;;28.91
62180;BMP280;48172;53.374;10.722;2022-08-19T07:34:52;101311.06;;;28.91
62180;BMP280;48172;53.374;10.722;2022-08-19T07:37:19;101317.81;;;28.90
62180;BMP280;48172;53.374;10.722;2022-08-19T07:39:45;101320.56;;;28.90
62180;BMP280;48172;53.374;10.722;2022-08-19T07:42:12;101319.78;;;28.89
62180;BMP280;48172;53.374;10.722;2022-08-19T07:44:40;101327.31;;;28.89
62180;BMP280;48172;53.374;10.722;2022-08-19T07:47:15;101339.06;;;28.89
62180;BMP280;48172;53.374;10.722;2022-08-19T07:50:03;101345.06;;;28.93
62180;BMP280;48172;53.374;10.722;2022-08-19T07:52:33;101351.03;;;28.92
62180;BMP280;48172;53.374;10.722;2022-08-19T07:54:59;101348.56;;;28.94
62180;BMP280;48172;53.374;10.722;2022-08-19T07:57:29;101345.28;;;28.95
62180;BMP280;48172;53.374;10.722;2022-08-19T07:59:56;101358.56;;;28.97
62180;BMP280;48172;53.374;10.722;2022-08-19T08:02:22;101356.53;;;28.92
62180;BMP280;48172;53.374;10.722;2022-08-19T08:04:49;101359.78;;;28.68
62180;BMP280;48172;53.374;10.722;2022-08-19T08:07:34;101364.53;;;28.67
62180;BMP280;48172;53.374;10.722;2022-08-19T08:10:19;101358.56;;;28.63
62180;BMP280;48172;53.374;10.722;2022-08-19T08:12:49;101356.53;;;28.58
62180;BMP280;48172;53.374;10.722;2022-08-19T08:15:36;101358.28;;;28.61
62180;BMP280;48172;53.374;10.722;2022-08-19T08:18:08;101361.06;;;28.67
62180;BMP280;48172;53.374;10.722;2022-08-19T08:20:35;101368.03;;;28.68
62180;BMP280;48172;53.374;10.722;2022-08-19T08:23:02;101368.31;;;28.70
62180;BMP280;48172;53.374;10.722;2022-08-19T08:25:48;101370.28;;;28.69
62180;BMP280;48172;53.374;10.722;2022-08-19T08:28:18;101368.31;;;28.70
62180;BMP280;48172;53.374;10.722;2022-08-19T08:30:47;101371.06;;;28.70
62180;BMP280;48172;53.374;10.722;2022-08-19T08:33:21;101381.56;;;28.71
62180;BMP280;48172;53.374;10.722;2022-08-19T08:36:00;101381.56;;;28.71
62180;BMP280;48172;53.374;10.722;2022-08-19T08:38:29;101387.81;;;28.72
62180;BMP280;48172;53.374;10.722;2022-08-19T08:41:14;101380.81;;;28.71
62180;BMP280;48172;53.374;10.722;2022-08-19T08:43:48;101376.81;;;28.72
62180;BMP280;48172;53.374;10.722;2022-08-19T08:46:20;101386.78;;;28.69
62180;BMP280;48172;53.374;10.722;2022-08-19T08:51:46;101385.28;;;28.68
62180;BMP280;48172;53.374;10.722;2022-08-19T08:54:30;101381.03;;;28.67
62180;BMP280;48172;53.374;10.722;2022-08-19T08:57:00;101384.53;;;28.68
62180;BMP280;48172;53.374;10.722;2022-08-19T08:59:31;101378.28;;;28.67
62180;BMP280;48172;53.374;10.722;2022-08-19T09:02:00;101389.06;;;28.65
62180;BMP280;48172;53.374;10.722;2022-08-19T09:04:27;101386.53;;;28.67
62180;BMP280;48172;53.374;10.722;2022-08-19T09:07:14;101389.81;;;28.66
62180;BMP280;48172;53.374;10.722;2022-08-19T09:15:48;101377.78;;;28.63
62180;BMP280;48172;53.374;10.722;2022-08-19T09:18:17;101382.03;;;28.64
62180;BMP280;48172;53.374;10.722;2022-08-19T09:20:46;101376.53;;;28.64
62180;BMP280;48172;53.374;10.722;2022-08-19T09:23:14;101380.03;;;28.65
62180;BMP280;48172;53.374;10.722;2022-08-19T09:25:40;101375.78;;;28.64
62180;BMP280;48172;53.374;10.722;2022-08-19T09:28:07;101373.53;;;28.62
62180;BMP280;48172;53.374;10.722;2022-08-19T09:30:52;101376.28;;;28.62
62180;BMP280;48172;53.374;10.722;2022-08-19T09:33:19;101375.03;;;28.63
62180;BMP280;48172;53.374;10.722;2022-08-19T09:35:46;101368.78;;;28.63
62180;BMP280;48172;53.374;10.722;2022-08-19T09:38:19;101366.78;;;28.63
62180;BMP280;48172;53.374;10.722;2022-08-19T09:40:46;101374.28;;;28.63
62180;BMP280;48172;53.374;10.722;2022-08-19T09:43:13;101382.53;;;28.63
62180;BMP280;48172;53.374;10.722;2022-08-19T09:45:39;101383.03;;;28.61
62180;BMP280;48172;53.374;10.722;2022-08-19T09:48:06;101385.81;;;28.67
62180;BMP280;48172;53.374;10.722;2022-08-19T09:50:37;101387.56;;;28.70
62180;BMP280;48172;53.374;10.722;2022-08-19T09:53:18;101385.06;;;28.72
62180;BMP280;48172;53.374;10.722;2022-08-19T09:55:45;101389.56;;;28.80
62180;BMP280;48172;53.374;10.722;2022-08-19T09:58:11;101391.56;;;28.85
62180;BMP280;48172;53.374;10.722;2022-08-19T10:00:38;101394.56;;;28.93
62180;BMP280;48172;53.374;10.722;2022-08-19T10:03:05;101387.81;;;29.00
62180;BMP280;48172;53.374;10.722;2022-08-19T10:05:33;101378.81;;;29.05
62180;BMP280;48172;53.374;10.722;2022-08-19T10:08:28;101376.28;;;29.12
62180;BMP280;48172;53.374;10.722;2022-08-19T10:10:56;101379.03;;;29.18
62180;BMP280;48172;53.374;10.722;2022-08-19T10:13:27;101380.50;;;29.24
62180;BMP280;48172;53.374;10.722;2022-08-19T10:15:55;101381.25;;;29.25
62180;BMP280;48172;53.374;10.722;2022-08-19T10:18:24;101373.50;;;29.29
62180;BMP280;48172;53.374;10.722;2022-08-19T10:20:51;101371.53;;;29.35
62180;BMP280;48172;53.374;10.722;2022-08-19T10:23:20;101379.78;;;29.35
62180;BMP280;48172;53.374;10.722;2022-08-19T10:25:48;101383.53;;;29.32
62180;BMP280;48172;53.374;10.722;2022-08-19T10:28:16;101385.53;;;29.26
62180;BMP280;48172;53.374;10.722;2022-08-19T10:58:36;101398.03;;;28.88
62180;BMP280;48172;53.374;10.722;2022-08-19T11:01:03;101396.78;;;28.83
62180;BMP280;48172;53.374;10.722;2022-08-19T11:03:29;101400.56;;;28.80
62180;BMP280;48172;53.374;10.722;2022-08-19T11:06:01;101398.56;;;28.81
62180;BMP280;48172;53.374;10.722;2022-08-19T11:08:28;101394.31;;;28.80
62180;BMP280;48172;53.374;10.722;2022-08-19T11:10:54;101390.53;;;28.77
62180;BMP280;48172;53.374;10.722;2022-08-19T11:13:23;101390.31;;;28.75
62180;BMP280;48172;53.374;10.722;2022-08-19T11:16:03;101389.56;;;28.75
62180;BMP280;48172;53.374;10.722;2022-08-19T11:18:35;101387.78;;;28.77
62180;BMP280;48172;53.374;10.722;2022-08-19T11:21:25;101374.81;;;28.72
62180;BMP280;48172;53.374;10.722;2022-08-19T11:23:55;101374.53;;;28.70
62180;BMP280;48172;53.374;10.722;2022-08-19T11:26:23;101372.78;;;28.67
62180;BMP280;48172;53.374;10.722;2022-08-19T11:28:52;101378.06;;;28.65
62180;BMP280;48172;53.374;10.722;2022-08-19T11:31:25;101371.53;;;28.63
62180;BMP280;48172;53.374;10.722;2022-08-19T11:33:56;101376.28;;;28.62
62180;BMP280;48172;53.374;10.722;2022-08-19T11:36:23;101372.78;;;28.62
62180;BMP280;48172;53.374;10.722;2022-08-19T11:38:50;101375.53;;;28.62
62180;BMP280;48172;53.374;10.722;2022-08-19T11:41:18;101372.53;;;28.60
62180;BMP280;48172;53.374;10.722;2022-08-19T11:43:45;101368.28;;;28.59
62180;BMP280;48172;53.374;10.722;2022-08-19T11:46:15;101381.28;;;28.58
62180;BMP280;48172;53.374;10.722;2022-08-19T11:48:42;101383.28;;;28.58
62180;BMP280;48172;53.374;10.722;2022-08-19T11:51:12;101376.75;;;28.55
62180;BMP280;48172;53.374;10.722;2022-08-19T11:53:39;101369.25;;;28.56
62180;BMP280;48172;53.374;10.722;2022-08-19T11:56:08;101371.03;;;28.53
62180;BMP280;48172;53.374;10.722;2022-08-19T11:58:35;101367.78;;;28.55
62180;BMP280;48172;53.374;10.722;2022-08-19T12:01:06;101371.56;;;28.52
62180;BMP280;48172;53.374;10.722;2022-08-19T12:03:33;101375.03;;;28.52
62180;BMP280;48172;53.374;10.722;2022-08-19T12:06:08;101369.25;;;28.50
62180;BMP280;48172;53.374;10.722;2022-08-19T12:08:35;101371.78;;;28.48
62180;BMP280;48172;53.374;10.722;2022-08-19T12:11:01;101359.03;;;28.45
62180;BMP280;48172;53.374;10.722;2022-08-19T12:13:30;101365.00;;;28.43
62180;BMP280;48172;53.374;10.722;2022-08-19T12:15:57;101356.75;;;28.49
62180;BMP280;48172;53.374;10.722;2022-08-19T12:18:24;101360.56;;;28.57
62180;BMP280;48172;53.374;10.722;2022-08-19T12:20:52;101366.78;;;28.63
62180;BMP280;48172;53.374;10.722;2022-08-19T12:23:20;101369.53;;;28.69
62180;BMP280;48172;53.374;10.722;2022-08-19T12:25:48;101363.03;;;28.77
62180;BMP280;48172;53.374;10.722;2022-08-19T12:28:19;101374.56;;;28.81
62180;BMP280;48172;53.374;10.722;2022-08-19T12:30:48;101363.28;;;28.85
62180;BMP280;48172;53.374;10.722;2022-08-19T12:33:19;101368.56;;;28.89
62180;BMP280;48172;53.374;10.722;2022-08-19T12:35:51;101362.56;;;28.84
62180;BMP280;48172;53.374;10.722;2022-08-19T12:38:18;101367.06;;;28.88
62180;BMP280;48172;53.374;10.722;2022-08-19T12:40:46;101358.03;;;28.93
62180;BMP280;48172;53.374;10.722;2022-08-19T12:43:14;101358.56;;;28.97
62180;BMP280;48172;53.374;10.722;2022-08-19T12:45:42;101363.56;;;28.98
62180;BMP280;48172;53.374;10.722;2022-08-19T12:48:09;101364.56;;;28.95
62180;BMP280;48172;53.374;10.722;2022-08-19T12:50:56;101371.28;;;28.94
62180;BMP280;48172;53.374;10.722;2022-08-19T12:53:26;101372.56;;;28.93
62180;BMP280;48172;53.374;10.722;2022-08-19T12:55:56;101369.56;;;28.80
62180;BMP280;48172;53.374;10.722;2022-08-19T12:58:23;101370.78;;;28.79
62180;BMP280;48172;53.374;10.722;2022-08-19T13:00:53;101369.56;;;28.80
62180;BMP280;48172;53.374;10.722;2022-08-19T13:03:20;101368.31;;;28.81
62180;BMP280;48172;53.374;10.722;2022-08-19T13:05:50;101366.31;;;28.81
62180;BMP280;48172;53.374;10.722;2022-08-19T13:08:17;101369.53;;;28.85
62180;BMP280;48172;53.374;10.722;2022-08-19T13:10:43;101366.31;;;28.87
62180;BMP280;48172;53.374;10.722;2022-08-19T13:13:10;101363.31;;;28.91
62180;BMP280;48172;53.374;10.722;2022-08-19T13:15:38;101366.28;;;28.93
62180;BMP280;48172;53.374;10.722;2022-08-19T13:18:12;101366.81;;;28.97
62180;BMP280;48172;53.374;10.722;2022-08-19T13:20:40;101365.53;;;28.98
62180;BMP280;48172;53.374;10.722;2022-08-19T13:23:18;101362.31;;;28.99
62180;BMP280;48172;53.374;10.722;2022-08-19T13:25:44;101369.28;;;29.00
62180;BMP280;48172;53.374;10.722;2022-08-19T13:28:13;101370.31;;;29.03
62180;BMP280;48172;53.374;10.722;2022-08-19T13:30:41;101363.28;;;29.02
62180;BMP280;48172;53.374;10.722;2022-08-19T13:33:26;101364.28;;;29.04
62180;BMP280;48172;53.374;10.722;2022-08-19T13:35:59;101369.03;;;29.04
62180;BMP280;48172;53.374;10.722;2022-08-19T13:38:28;101365.78;;;29.05
62180;BMP280;48172;53.374;10.722;2022-08-19T13:40:54;101374.06;;;29.05
62180;BMP280;48172;53.374;10.722;2022-08-19T13:43:24;101370.78;;;29.07
62180;BMP280;48172;53.374;10.722;2022-08-19T13:45:54;101370.03;;;29.06
62180;BMP280;48172;53.374;10.722;2022-08-19T13:48:25;101377.56;;;29.06
62180;BMP280;48172;53.374;10.722;2022-08-19T13:50:54;101372.06;;;29.06
62180;BMP280;48172;53.374;10.722;2022-08-19T13:53:21;101367.56;;;29.03
62180;BMP280;48172;53.374;10.722;2022-08-19T13:55:47;101367.03;;;29.04
62180;BMP280;48172;53.374;10.722;2022-08-19T13:58:16;101363.81;;;29.06
62180;BMP280;48172;53.374;10.722;2022-08-19T14:00:44;101365.03;;;29.05
62180;BMP280;48172;53.374;10.722;2022-08-19T14:03:11;101367.03;;;29.04
62180;BMP280;48172;53.374;10.722;2022-08-19T14:05:38;101362.28;;;29.05
62180;BMP280;48172;53.374;10.722;2022-08-19T14:08:05;101357.28;;;29.03
62180;BMP280;48172;53.374;10.722;2022-08-19T14:10:32;101357.78;;;29.02
62180;BMP280;48172;53.374;10.722;2022-08-19T14:13:02;101352.78;;;29.00
62180;BMP280;48172;53.374;10.722;2022-08-19T14:15:31;101343.28;;;29.01
62180;BMP280;48172;53.374;10.722;2022-08-19T14:17:58;101348.78;;;29.01
62180;BMP280;48172;53.374;10.722;2022-08-19T14:20:26;101346.03;;;29.01
62180;BMP280;48172;53.374;10.722;2022-08-19T14:22:54;101349.53;;;29.02
62180;BMP280;48172;53.374;10.722;2022-08-19T14:25:26;101345.28;;;29.01
62180;BMP280;48172;53.374;10.722;2022-08-19T14:27:54;101348.03;;;29.01
62180;BMP280;48172;53.374;10.722;2022-08-19T14:30:31;101352.78;;;29.00
62180;BMP280;48172;53.374;10.722;2022-08-19T14:33:00;101352.06;;;29.00
62180;BMP280;48172;53.374;10.722;2022-08-19T14:35:28;101353.31;;;28.99
62180;BMP280;48172;53.374;10.722;2022-08-19T14:37:58;101350.56;;;28.99
62180;BMP280;48172;53.374;10.722;2022-08-19T14:40:27;101343.53;;;28.98
62180;BMP280;48172;53.374;10.722;2022-08-19T14:42:59;101336.28;;;29.00